sensor_id;sensor_type;location;lat;lon;timestamp;temperature;humidity
6986;DHT22;3533;51.246;6.850;2024-02-21T00:00:45;19.40;46.00
6986;DHT22;3533;51.246;6.850;2024-02-21T00:03:11;19.40;45.90
6986;DHT22;3533;51.246;6.850;2024-02-21T00:05:37;19.40;45.90
6986;DHT22;3533;51.246;6.850;2024-02-21T00:08:02;19.40;45.90
6986;DHT22;3533;51.246;6.850;2024-02-21T00:10:31;19.40;46.00
6986;DHT22;3533;51.246;6.850;2024-02-21T00:13:00;19.40;46.00
6986;DHT22;3533;51.246;6.850;2024-02-21T00:15:26;19.40;45.90
6986;DHT22;3533;51.246;6.850;2024-02-21T00:17:51;19.40;45.90
6986;DHT22;3533;51.246;6.850;2024-02-21T00:20:17;19.40;45.90
6986;DHT22;3533;51.246;6.850;2024-02-21T00:22:43;19.40;45.90
6986;DHT22;3533;51.246;6.850;2024-02-21T00:25:09;19.40;46.00
6986;DHT22;3533;51.246;6.850;2024-02-21T00:27:35;19.40;46.00
6986;DHT22;3533;51.246;6.850;2024-02-21T00:30:01;19.40;45.90
6986;DHT22;3533;51.246;6.850;2024-02-21T00:32:26;19.40;46.00
6986;DHT22;3533;51.246;6.850;2024-02-21T00:34:52;19.40;46.00
6986;DHT22;3533;51.246;6.850;2024-02-21T00:37:17;19.40;45.90
6986;DHT22;3533;51.246;6.850;2024-02-21T00:39:43;19.40;46.00
6986;DHT22;3533;51.246;6.850;2024-02-21T00:42:09;19.40;46.00
6986;DHT22;3533;51.246;6.850;2024-02-21T00:44:35;19.40;46.00
6986;DHT22;3533;51.246;6.850;2024-02-21T00:47:00;19.40;46.00
6986;DHT22;3533;51.246;6.850;2024-02-21T00:49:26;19.40;46.00
6986;DHT22;3533;51.246;6.850;2024-02-21T00:51:51;19.40;46.00
6986;DHT22;3533;51.246;6.850;2024-02-21T00:54:17;19.40;45.90
6986;DHT22;3533;51.246;6.850;2024-02-21T00:56:43;19.40;46.00
6986;DHT22;3533;51.246;6.850;2024-02-21T00:59:08;19.40;46.00
6986;DHT22;3533;51.246;6.850;2024-02-21T01:01:34;19.40;46.00
6986;DHT22;3533;51.246;6.850;2024-02-21T01:03:59;19.40;46.00
6986;DHT22;3533;51.246;6.850;2024-02-21T01:06:25;19.40;46.00
6986;DHT22;3533;51.246;6.850;2024-02-21T01:08:51;19.40;46.00
6986;DHT22;3533;51.246;6.850;2024-02-21T01:11:17;19.40;46.00
6986;DHT22;3533;51.246;6.850;2024-02-21T01:13:43;19.40;46.00
6986;DHT22;3533;51.246;6.850;2024-02-21T01:16:09;19.40;46.00
6986;DHT22;3533;51.246;6.850;2024-02-21T01:18:37;19.40;46.00
6986;DHT22;3533;51.246;6.850;2024-02-21T01:21:03;19.40;46.00
6986;DHT22;3533;51.246;6.850;2024-02-21T01:23:35;19.40;46.00
6986;DHT22;3533;51.246;6.850;2024-02-21T01:26:01;19.40;46.00
6986;DHT22;3533;51.246;6.850;2024-02-21T01:28:26;19.40;46.00
6986;DHT22;3533;51.246;6.850;2024-02-21T01:30:52;19.40;46.00
6986;DHT22;3533;51.246;6.850;2024-02-21T01:33:17;19.40;46.00
6986;DHT22;3533;51.246;6.850;2024-02-21T01:35:44;19.40;46.00
6986;DHT22;3533;51.246;6.850;2024-02-21T01:38:10;19.40;46.00
6986;DHT22;3533;51.246;6.850;2024-02-21T01:40:36;19.40;46.10
6986;DHT22;3533;51.246;6.850;2024-02-21T01:43:02;19.40;46.00
6986;DHT22;3533;51.246;6.850;2024-02-21T01:45:28;19.40;46.00
6986;DHT22;3533;51.246;6.850;2024-02-21T01:47:54;19.40;46.00
6986;DHT22;3533;51.246;6.850;2024-02-21T01:50:20;19.40;46.00
6986;DHT22;3533;51.246;6.850;2024-02-21T01:52:48;19.40;46.00
6986;DHT22;3533;51.246;6.850;2024-02-21T01:55:16;19.40;46.00
6986;DHT22;3533;51.246;6.850;2024-02-21T01:57:42;19.40;46.00
6986;DHT22;3533;51.246;6.850;2024-02-21T02:00:11;19.40;46.10
6986;DHT22;3533;51.246;6.850;2024-02-21T02:02:39;19.40;46.00
6986;DHT22;3533;51.246;6.850;2024-02-21T02:05:06;19.40;46.00
6986;DHT22;3533;51.246;6.850;2024-02-21T02:07:32;19.40;46.10
6986;DHT22;3533;51.246;6.850;2024-02-21T02:09:57;19.40;46.00
6986;DHT22;3533;51.246;6.850;2024-02-21T02:12:24;19.40;46.10
6986;DHT22;3533;51.246;6.850;2024-02-21T02:15:03;19.40;46.00
6986;DHT22;3533;51.246;6.850;2024-02-21T02:17:30;19.40;46.00
6986;DHT22;3533;51.246;6.850;2024-02-21T02:19:56;19.30;45.90
6986;DHT22;3533;51.246;6.850;2024-02-21T02:22:41;19.40;46.10
6986;DHT22;3533;51.246;6.850;2024-02-21T02:25:08;19.40;46.00
6986;DHT22;3533;51.246;6.850;2024-02-21T02:27:41;19.40;46.00
6986;DHT22;3533;51.246;6.850;2024-02-21T02:30:10;19.30;45.90
6986;DHT22;3533;51.246;6.850;2024-02-21T02:32:35;19.40;46.00
6986;DHT22;3533;51.246;6.850;2024-02-21T02:35:01;19.30;45.90
6986;DHT22;3533;51.246;6.850;2024-02-21T02:37:27;19.30;45.90
6986;DHT22;3533;51.246;6.850;2024-02-21T02:39:52;19.40;46.10
6986;DHT22;3533;51.246;6.850;2024-02-21T02:42:18;19.30;45.90
6986;DHT22;3533;51.246;6.850;2024-02-21T02:44:43;19.30;45.90
6986;DHT22;3533;51.246;6.850;2024-02-21T02:47:09;19.30;45.90
6986;DHT22;3533;51.246;6.850;2024-02-21T02:49:35;19.30;46.00
6986;DHT22;3533;51.246;6.850;2024-02-21T02:52:00;19.30;45.90
6986;DHT22;3533;51.246;6.850;2024-02-21T02:54:26;19.30;46.00
6986;DHT22;3533;51.246;6.850;2024-02-21T02:56:51;19.40;46.00
6986;DHT22;3533;51.246;6.850;2024-02-21T02:59:17;19.40;46.00
6986;DHT22;3533;51.246;6.850;2024-02-21T03:01:42;19.40;46.00
6986;DHT22;3533;51.246;6.850;2024-02-21T03:04:08;19.30;45.90
6986;DHT22;3533;51.246;6.850;2024-02-21T03:06:33;19.30;45.90
6986;DHT22;3533;51.246;6.850;2024-02-21T03:08:59;19.30;45.90
6986;DHT22;3533;51.246;6.850;2024-02-21T03:11:25;19.30;45.90
6986;DHT22;3533;51.246;6.850;2024-02-21T03:13:55;19.30;45.90
6986;DHT22;3533;51.246;6.850;2024-02-21T03:16:22;19.30;45.90
6986;DHT22;3533;51.246;6.850;2024-02-21T03:18:47;19.30;45.90
6986;DHT22;3533;51.246;6.850;2024-02-21T03:21:13;19.30;46.00
6986;DHT22;3533;51.246;6.850;2024-02-21T03:23:39;19.30;45.90
6986;DHT22;3533;51.246;6.850;2024-02-21T03:26:04;19.30;45.90
6986;DHT22;3533;51.246;6.850;2024-02-21T03:28:30;19.30;45.90
6986;DHT22;3533;51.246;6.850;2024-02-21T03:30:56;19.30;46.00
6986;DHT22;3533;51.246;6.850;2024-02-21T03:33:21;19.30;45.90
6986;DHT22;3533;51.246;6.850;2024-02-21T03:35:48;19.30;46.00
6986;DHT22;3533;51.246;6.850;2024-02-21T03:38:14;19.30;46.00
6986;DHT22;3533;51.246;6.850;2024-02-21T03:40:40;19.30;45.90
6986;DHT22;3533;51.246;6.850;2024-02-21T03:43:05;19.30;46.00
6986;DHT22;3533;51.246;6.850;2024-02-21T03:45:31;19.30;46.00
6986;DHT22;3533;51.246;6.850;2024-02-21T03:47:56;19.30;46.00
6986;DHT22;3533;51.246;6.850;2024-02-21T03:50:22;19.30;46.00
6986;DHT22;3533;51.246;6.850;2024-02-21T03:52:47;19.30;46.00
6986;DHT22;3533;51.246;6.850;2024-02-21T03:55:13;19.30;46.00
6986;DHT22;3533;51.246;6.850;2024-02-21T03:57:38;19.30;46.00
6986;DHT22;3533;51.246;6.850;2024-02-21T04:00:05;19.30;46.00
6986;DHT22;3533;51.246;6.850;2024-02-21T04:02:36;19.30;46.00
6986;DHT22;3533;51.246;6.850;2024-02-21T04:05:01;19.30;46.10
6986;DHT22;3533;51.246;6.850;2024-02-21T04:07:27;19.30;46.10
6986;DHT22;3533;51.246;6.850;2024-02-21T04:09:53;19.30;46.00
6986;DHT22;3533;51.246;6.850;2024-02-21T04:12:19;19.30;46.00
6986;DHT22;3533;51.246;6.850;2024-02-21T04:14:44;19.30;46.00
6986;DHT22;3533;51.246;6.850;2024-02-21T04:17:10;19.30;46.00
6986;DHT22;3533;51.246;6.850;2024-02-21T04:19:35;19.30;46.00
6986;DHT22;3533;51.246;6.850;2024-02-21T04:22:01;19.30;46.10
6986;DHT22;3533;51.246;6.850;2024-02-21T04:24:26;19.30;46.00
6986;DHT22;3533;51.246;6.850;2024-02-21T04:26:52;19.30;46.00
6986;DHT22;3533;51.246;6.850;2024-02-21T04:29:18;19.30;46.00
6986;DHT22;3533;51.246;6.850;2024-02-21T04:31:43;19.30;46.00
6986;DHT22;3533;51.246;6.850;2024-02-21T04:34:09;19.30;46.00
6986;DHT22;3533;51.246;6.850;2024-02-21T04:36:34;19.30;46.00
6986;DHT22;3533;51.246;6.850;2024-02-21T04:39:00;19.30;46.00
6986;DHT22;3533;51.246;6.850;2024-02-21T04:41:26;19.30;46.70
6986;DHT22;3533;51.246;6.850;2024-02-21T04:43:51;19.30;46.00
6986;DHT22;3533;51.246;6.850;2024-02-21T04:46:17;19.30;45.90
6986;DHT22;3533;51.246;6.850;2024-02-21T04:48:42;19.30;46.00
6986;DHT22;3533;51.246;6.850;2024-02-21T04:51:08;19.30;46.00
6986;DHT22;3533;51.246;6.850;2024-02-21T04:53:34;19.30;45.90
6986;DHT22;3533;51.246;6.850;2024-02-21T04:56:00;19.30;45.90
6986;DHT22;3533;51.246;6.850;2024-02-21T04:58:25;19.30;45.90
6986;DHT22;3533;51.246;6.850;2024-02-21T05:00:51;19.30;45.90
6986;DHT22;3533;51.246;6.850;2024-02-21T05:03:17;19.30;45.90
6986;DHT22;3533;51.246;6.850;2024-02-21T05:05:42;19.30;45.90
6986;DHT22;3533;51.246;6.850;2024-02-21T05:08:09;19.30;45.90
6986;DHT22;3533;51.246;6.850;2024-02-21T05:10:35;19.30;45.80
6986;DHT22;3533;51.246;6.850;2024-02-21T05:13:01;19.30;45.90
6986;DHT22;3533;51.246;6.850;2024-02-21T05:15:27;19.30;45.80
6986;DHT22;3533;51.246;6.850;2024-02-21T05:17:52;19.40;45.80
6986;DHT22;3533;51.246;6.850;2024-02-21T05:20:18;19.40;45.80
6986;DHT22;3533;51.246;6.850;2024-02-21T05:22:43;19.40;45.80
6986;DHT22;3533;51.246;6.850;2024-02-21T05:25:09;19.40;45.70
6986;DHT22;3533;51.246;6.850;2024-02-21T05:27:35;19.40;45.70
6986;DHT22;3533;51.246;6.850;2024-02-21T05:30:02;19.40;45.70
6986;DHT22;3533;51.246;6.850;2024-02-21T05:32:28;19.40;45.60
6986;DHT22;3533;51.246;6.850;2024-02-21T05:34:54;19.40;45.60
6986;DHT22;3533;51.246;6.850;2024-02-21T05:37:20;19.50;45.70
6986;DHT22;3533;51.246;6.850;2024-02-21T05:39:45;19.40;45.70
6986;DHT22;3533;51.246;6.850;2024-02-21T05:42:11;19.40;45.60
6986;DHT22;3533;51.246;6.850;2024-02-21T05:44:36;19.40;45.60
6986;DHT22;3533;51.246;6.850;2024-02-21T05:47:02;19.40;45.60
6986;DHT22;3533;51.246;6.850;2024-02-21T05:49:28;19.40;45.60
6986;DHT22;3533;51.246;6.850;2024-02-21T05:51:53;19.50;45.70
6986;DHT22;3533;51.246;6.850;2024-02-21T05:54:19;19.50;45.70
6986;DHT22;3533;51.246;6.850;2024-02-21T05:56:45;19.40;45.70
6986;DHT22;3533;51.246;6.850;2024-02-21T05:59:11;19.40;45.70
6986;DHT22;3533;51.246;6.850;2024-02-21T06:01:36;19.40;45.60
6986;DHT22;3533;51.246;6.850;2024-02-21T06:04:02;19.40;45.60
6986;DHT22;3533;51.246;6.850;2024-02-21T06:06:28;19.40;45.60
6986;DHT22;3533;51.246;6.850;2024-02-21T06:08:53;19.40;45.70
6986;DHT22;3533;51.246;6.850;2024-02-21T06:11:19;19.40;45.60
6986;DHT22;3533;51.246;6.850;2024-02-21T06:13:44;19.40;45.60
6986;DHT22;3533;51.246;6.850;2024-02-21T06:16:10;19.40;45.70
6986;DHT22;3533;51.246;6.850;2024-02-21T06:18:36;19.50;45.80
6986;DHT22;3533;51.246;6.850;2024-02-21T06:21:04;19.40;45.70
6986;DHT22;3533;51.246;6.850;2024-02-21T06:23:30;19.40;45.70
6986;DHT22;3533;51.246;6.850;2024-02-21T06:25:56;19.40;45.70
6986;DHT22;3533;51.246;6.850;2024-02-21T06:28:21;19.40;45.70
6986;DHT22;3533;51.246;6.850;2024-02-21T06:30:47;19.50;46.30
6986;DHT22;3533;51.246;6.850;2024-02-21T06:33:12;19.50;45.80
6986;DHT22;3533;51.246;6.850;2024-02-21T06:35:38;19.40;45.70
6986;DHT22;3533;51.246;6.850;2024-02-21T06:38:06;19.40;45.80
6986;DHT22;3533;51.246;6.850;2024-02-21T06:40:33;19.40;45.80
6986;DHT22;3533;51.246;6.850;2024-02-21T06:43:04;19.40;45.80
6986;DHT22;3533;51.246;6.850;2024-02-21T06:45:29;19.50;45.80
6986;DHT22;3533;51.246;6.850;2024-02-21T06:47:55;19.40;45.70
6986;DHT22;3533;51.246;6.850;2024-02-21T06:50:21;19.50;45.80
6986;DHT22;3533;51.246;6.850;2024-02-21T06:52:46;19.40;45.70
6986;DHT22;3533;51.246;6.850;2024-02-21T06:55:12;19.40;45.80
6986;DHT22;3533;51.246;6.850;2024-02-21T06:57:37;19.40;45.70
6986;DHT22;3533;51.246;6.850;2024-02-21T07:00:03;19.40;45.80
6986;DHT22;3533;51.246;6.850;2024-02-21T07:02:33;19.40;45.70
6986;DHT22;3533;51.246;6.850;2024-02-21T07:04:59;19.40;45.70
6986;DHT22;3533;51.246;6.850;2024-02-21T07:07:24;19.40;45.70
6986;DHT22;3533;51.246;6.850;2024-02-21T07:09:50;19.40;45.70
6986;DHT22;3533;51.246;6.850;2024-02-21T07:12:15;19.40;45.70
6986;DHT22;3533;51.246;6.850;2024-02-21T07:14:41;19.40;45.70
6986;DHT22;3533;51.246;6.850;2024-02-21T07:17:07;19.50;45.90
6986;DHT22;3533;51.246;6.850;2024-02-21T07:19:32;19.40;45.70
6986;DHT22;3533;51.246;6.850;2024-02-21T07:21:58;19.40;45.70
6986;DHT22;3533;51.246;6.850;2024-02-21T07:24:23;19.40;45.70
6986;DHT22;3533;51.246;6.850;2024-02-21T07:26:49;19.40;45.70
6986;DHT22;3533;51.246;6.850;2024-02-21T07:29:15;19.40;45.70
6986;DHT22;3533;51.246;6.850;2024-02-21T07:31:44;19.40;45.70
6986;DHT22;3533;51.246;6.850;2024-02-21T07:34:09;19.40;45.70
6986;DHT22;3533;51.246;6.850;2024-02-21T07:36:35;19.40;45.70
6986;DHT22;3533;51.246;6.850;2024-02-21T07:39:02;19.40;45.70
6986;DHT22;3533;51.246;6.850;2024-02-21T07:41:28;19.50;45.80
6986;DHT22;3533;51.246;6.850;2024-02-21T07:43:55;19.40;45.70
6986;DHT22;3533;51.246;6.850;2024-02-21T07:46:21;19.40;45.70
6986;DHT22;3533;51.246;6.850;2024-02-21T07:48:47;19.40;45.70
6986;DHT22;3533;51.246;6.850;2024-02-21T07:51:13;19.40;45.70
6986;DHT22;3533;51.246;6.850;2024-02-21T07:53:39;19.40;45.70
6986;DHT22;3533;51.246;6.850;2024-02-21T07:56:13;19.40;45.70
6986;DHT22;3533;51.246;6.850;2024-02-21T07:58:39;19.40;45.60
6986;DHT22;3533;51.246;6.850;2024-02-21T08:01:05;19.40;45.70
6986;DHT22;3533;51.246;6.850;2024-02-21T08:03:31;19.40;45.70
6986;DHT22;3533;51.246;6.850;2024-02-21T08:05:56;19.40;45.60
6986;DHT22;3533;51.246;6.850;2024-02-21T08:08:22;19.40;45.60
6986;DHT22;3533;51.246;6.850;2024-02-21T08:10:48;19.40;45.60
6986;DHT22;3533;51.246;6.850;2024-02-21T08:13:14;19.40;45.60
6986;DHT22;3533;51.246;6.850;2024-02-21T08:15:40;19.40;45.60
6986;DHT22;3533;51.246;6.850;2024-02-21T08:18:07;19.40;45.60
6986;DHT22;3533;51.246;6.850;2024-02-21T08:20:33;19.40;45.60
6986;DHT22;3533;51.246;6.850;2024-02-21T08:22:59;19.40;45.60
6986;DHT22;3533;51.246;6.850;2024-02-21T08:25:25;19.40;45.50
6986;DHT22;3533;51.246;6.850;2024-02-21T08:27:50;19.40;45.60
6986;DHT22;3533;51.246;6.850;2024-02-21T08:30:17;19.40;45.60
6986;DHT22;3533;51.246;6.850;2024-02-21T08:32:42;19.40;45.60
6986;DHT22;3533;51.246;6.850;2024-02-21T08:35:08;19.40;45.60
6986;DHT22;3533;51.246;6.850;2024-02-21T08:37:34;19.40;45.60
6986;DHT22;3533;51.246;6.850;2024-02-21T08:39:59;19.40;45.60
6986;DHT22;3533;51.246;6.850;2024-02-21T08:42:30;19.40;45.60
6986;DHT22;3533;51.246;6.850;2024-02-21T08:44:55;19.40;45.60
6986;DHT22;3533;51.246;6.850;2024-02-21T08:47:21;19.40;45.60
6986;DHT22;3533;51.246;6.850;2024-02-21T08:49:46;19.40;45.50
6986;DHT22;3533;51.246;6.850;2024-02-21T08:52:13;19.40;45.50
6986;DHT22;3533;51.246;6.850;2024-02-21T08:54:39;19.40;45.50
6986;DHT22;3533;51.246;6.850;2024-02-21T08:57:04;19.40;45.50
6986;DHT22;3533;51.246;6.850;2024-02-21T08:59:30;19.40;45.50
6986;DHT22;3533;51.246;6.850;2024-02-21T09:01:55;19.40;45.50
6986;DHT22;3533;51.246;6.850;2024-02-21T09:04:21;19.40;45.60
6986;DHT22;3533;51.246;6.850;2024-02-21T09:06:47;19.40;45.50
6986;DHT22;3533;51.246;6.850;2024-02-21T09:09:13;19.40;45.50
6986;DHT22;3533;51.246;6.850;2024-02-21T09:11:38;19.40;45.40
6986;DHT22;3533;51.246;6.850;2024-02-21T09:14:05;19.40;45.40
6986;DHT22;3533;51.246;6.850;2024-02-21T09:16:34;19.40;45.50
6986;DHT22;3533;51.246;6.850;2024-02-21T09:18:59;19.40;45.50
6986;DHT22;3533;51.246;6.850;2024-02-21T09:21:26;19.40;45.50
6986;DHT22;3533;51.246;6.850;2024-02-21T09:23:51;19.40;45.50
6986;DHT22;3533;51.246;6.850;2024-02-21T09:26:17;19.40;45.50
6986;DHT22;3533;51.246;6.850;2024-02-21T09:28:43;19.40;45.50
6986;DHT22;3533;51.246;6.850;2024-02-21T09:31:12;19.40;45.40
6986;DHT22;3533;51.246;6.850;2024-02-21T09:33:37;19.40;45.50
6986;DHT22;3533;51.246;6.850;2024-02-21T09:36:03;19.30;45.40
6986;DHT22;3533;51.246;6.850;2024-02-21T09:38:31;19.40;45.50
6986;DHT22;3533;51.246;6.850;2024-02-21T09:41:09;19.40;45.50
6986;DHT22;3533;51.246;6.850;2024-02-21T09:43:40;19.30;45.40
6986;DHT22;3533;51.246;6.850;2024-02-21T09:46:07;19.40;45.50
6986;DHT22;3533;51.246;6.850;2024-02-21T09:51:07;19.30;45.40
6986;DHT22;3533;51.246;6.850;2024-02-21T09:53:35;19.40;45.40
6986;DHT22;3533;51.246;6.850;2024-02-21T09:56:04;19.40;45.40
6986;DHT22;3533;51.246;6.850;2024-02-21T09:58:30;19.40;45.50
6986;DHT22;3533;51.246;6.850;2024-02-21T10:00:56;19.40;45.40
6986;DHT22;3533;51.246;6.850;2024-02-21T10:03:23;19.40;45.50
6986;DHT22;3533;51.246;6.850;2024-02-21T10:05:49;19.30;45.40
6986;DHT22;3533;51.246;6.850;2024-02-21T10:08:18;19.40;45.40
6986;DHT22;3533;51.246;6.850;2024-02-21T10:10:45;19.40;45.50
6986;DHT22;3533;51.246;6.850;2024-02-21T10:13:25;19.40;45.40
6986;DHT22;3533;51.246;6.850;2024-02-21T10:16:07;19.30;45.30
6986;DHT22;3533;51.246;6.850;2024-02-21T10:18:34;19.40;45.40
6986;DHT22;3533;51.246;6.850;2024-02-21T10:21:04;19.30;45.30
6986;DHT22;3533;51.246;6.850;2024-02-21T10:23:43;19.30;45.30
6986;DHT22;3533;51.246;6.850;2024-02-21T10:26:09;19.30;45.30
6986;DHT22;3533;51.246;6.850;2024-02-21T10:28:35;19.30;45.40
6986;DHT22;3533;51.246;6.850;2024-02-21T10:31:01;19.40;45.40
6986;DHT22;3533;51.246;6.850;2024-02-21T10:33:26;19.30;45.30
6986;DHT22;3533;51.246;6.850;2024-02-21T10:35:53;19.30;45.30
6986;DHT22;3533;51.246;6.850;2024-02-21T10:38:19;19.30;45.30
6986;DHT22;3533;51.246;6.850;2024-02-21T10:40:47;19.30;45.30
6986;DHT22;3533;51.246;6.850;2024-02-21T10:43:14;19.40;45.40
6986;DHT22;3533;51.246;6.850;2024-02-21T10:45:41;19.30;45.30
6986;DHT22;3533;51.246;6.850;2024-02-21T10:48:13;19.30;46.10
6986;DHT22;3533;51.246;6.850;2024-02-21T10:50:57;19.40;45.40
6986;DHT22;3533;51.246;6.850;2024-02-21T10:53:40;19.40;45.40
6986;DHT22;3533;51.246;6.850;2024-02-21T10:56:31;19.40;45.40
6986;DHT22;3533;51.246;6.850;2024-02-21T10:59:01;19.30;45.30
6986;DHT22;3533;51.246;6.850;2024-02-21T11:01:28;19.30;45.30
6986;DHT22;3533;51.246;6.850;2024-02-21T11:03:58;19.30;45.30
6986;DHT22;3533;51.246;6.850;2024-02-21T11:06:25;19.40;46.20
6986;DHT22;3533;51.246;6.850;2024-02-21T11:09:03;19.40;45.40
6986;DHT22;3533;51.246;6.850;2024-02-21T11:11:37;19.40;45.40
6986;DHT22;3533;51.246;6.850;2024-02-21T11:14:19;19.30;45.30
6986;DHT22;3533;51.246;6.850;2024-02-21T11:16:45;19.40;45.30
6986;DHT22;3533;51.246;6.850;2024-02-21T11:21:45;19.30;45.30
6986;DHT22;3533;51.246;6.850;2024-02-21T11:24:11;19.30;45.30
6986;DHT22;3533;51.246;6.850;2024-02-21T11:26:40;19.40;45.40
6986;DHT22;3533;51.246;6.850;2024-02-21T11:29:08;19.30;45.30
6986;DHT22;3533;51.246;6.850;2024-02-21T11:31:39;19.30;45.20
6986;DHT22;3533;51.246;6.850;2024-02-21T11:34:09;19.40;45.30
6986;DHT22;3533;51.246;6.850;2024-02-21T11:36:35;19.30;45.30
6986;DHT22;3533;51.246;6.850;2024-02-21T11:39:04;19.40;45.40
6986;DHT22;3533;51.246;6.850;2024-02-21T11:41:30;19.30;45.20
6986;DHT22;3533;51.246;6.850;2024-02-21T11:43:55;19.30;45.20
6986;DHT22;3533;51.246;6.850;2024-02-21T11:46:21;19.30;45.20
6986;DHT22;3533;51.246;6.850;2024-02-21T11:48:47;19.30;45.20
6986;DHT22;3533;51.246;6.850;2024-02-21T11:51:24;19.40;45.30
6986;DHT22;3533;51.246;6.850;2024-02-21T11:53:51;19.40;45.30
6986;DHT22;3533;51.246;6.850;2024-02-21T11:56:17;19.40;45.30
6986;DHT22;3533;51.246;6.850;2024-02-21T11:58:43;19.40;45.40
6986;DHT22;3533;51.246;6.850;2024-02-21T12:01:08;19.40;45.30
6986;DHT22;3533;51.246;6.850;2024-02-21T12:03:35;19.40;45.30
6986;DHT22;3533;51.246;6.850;2024-02-21T12:06:01;19.30;45.20
6986;DHT22;3533;51.246;6.850;2024-02-21T12:08:40;19.40;45.30
6986;DHT22;3533;51.246;6.850;2024-02-21T12:11:19;19.40;45.30
6986;DHT22;3533;51.246;6.850;2024-02-21T12:13:45;19.40;45.30
6986;DHT22;3533;51.246;6.850;2024-02-21T12:16:11;19.40;45.30
6986;DHT22;3533;51.246;6.850;2024-02-21T12:18:36;19.40;45.30
6986;DHT22;3533;51.246;6.850;2024-02-21T12:21:02;19.40;45.30
6986;DHT22;3533;51.246;6.850;2024-02-21T12:23:30;19.40;45.30
6986;DHT22;3533;51.246;6.850;2024-02-21T12:25:55;19.30;45.20
6986;DHT22;3533;51.246;6.850;2024-02-21T12:28:21;19.40;45.30
6986;DHT22;3533;51.246;6.850;2024-02-21T12:30:47;19.40;45.20
6986;DHT22;3533;51.246;6.850;2024-02-21T12:33:13;19.40;45.30
6986;DHT22;3533;51.246;6.850;2024-02-21T12:35:39;19.40;45.30
6986;DHT22;3533;51.246;6.850;2024-02-21T12:38:05;19.40;45.30
6986;DHT22;3533;51.246;6.850;2024-02-21T12:40:31;19.40;45.30
6986;DHT22;3533;51.246;6.850;2024-02-21T12:43:02;19.40;45.20
6986;DHT22;3533;51.246;6.850;2024-02-21T12:45:30;19.40;45.30
6986;DHT22;3533;51.246;6.850;2024-02-21T12:47:56;19.40;45.30
6986;DHT22;3533;51.246;6.850;2024-02-21T12:50:21;19.40;45.20
6986;DHT22;3533;51.246;6.850;2024-02-21T12:52:48;19.40;45.30
6986;DHT22;3533;51.246;6.850;2024-02-21T12:55:15;19.40;45.20
6986;DHT22;3533;51.246;6.850;2024-02-21T12:57:41;19.40;45.20
6986;DHT22;3533;51.246;6.850;2024-02-21T13:00:07;19.40;45.20
6986;DHT22;3533;51.246;6.850;2024-02-21T13:02:34;19.40;45.20
6986;DHT22;3533;51.246;6.850;2024-02-21T13:05:00;19.40;45.20
6986;DHT22;3533;51.246;6.850;2024-02-21T13:07:28;19.40;45.20
6986;DHT22;3533;51.246;6.850;2024-02-21T13:09:54;19.40;45.30
6986;DHT22;3533;51.246;6.850;2024-02-21T13:12:19;19.40;45.20
6986;DHT22;3533;51.246;6.850;2024-02-21T13:14:45;19.40;45.20
6986;DHT22;3533;51.246;6.850;2024-02-21T13:17:12;19.40;45.20
6986;DHT22;3533;51.246;6.850;2024-02-21T13:19:37;19.40;45.20
6986;DHT22;3533;51.246;6.850;2024-02-21T13:22:03;19.40;45.20
6986;DHT22;3533;51.246;6.850;2024-02-21T13:24:30;19.40;45.20
6986;DHT22;3533;51.246;6.850;2024-02-21T13:26:55;19.40;45.20
6986;DHT22;3533;51.246;6.850;2024-02-21T13:29:21;19.40;45.20
6986;DHT22;3533;51.246;6.850;2024-02-21T13:31:47;19.40;45.20
6986;DHT22;3533;51.246;6.850;2024-02-21T13:34:12;19.40;45.20
6986;DHT22;3533;51.246;6.850;2024-02-21T13:36:38;19.40;45.20
6986;DHT22;3533;51.246;6.850;2024-02-21T13:39:03;19.40;45.20
6986;DHT22;3533;51.246;6.850;2024-02-21T13:41:34;19.40;45.10
6986;DHT22;3533;51.246;6.850;2024-02-21T13:44:00;19.40;45.20
6986;DHT22;3533;51.246;6.850;2024-02-21T13:46:29;19.40;45.20
6986;DHT22;3533;51.246;6.850;2024-02-21T13:49:03;19.40;45.20
6986;DHT22;3533;51.246;6.850;2024-02-21T13:51:35;19.40;45.10
6986;DHT22;3533;51.246;6.850;2024-02-21T13:54:02;19.40;45.10
6986;DHT22;3533;51.246;6.850;2024-02-21T13:56:29;19.40;45.20
6986;DHT22;3533;51.246;6.850;2024-02-21T13:58:54;19.40;45.10
6986;DHT22;3533;51.246;6.850;2024-02-21T14:01:20;19.40;45.10
6986;DHT22;3533;51.246;6.850;2024-02-21T14:03:46;19.40;45.10
6986;DHT22;3533;51.246;6.850;2024-02-21T14:06:11;19.40;45.10
6986;DHT22;3533;51.246;6.850;2024-02-21T14:08:37;19.40;45.10
6986;DHT22;3533;51.246;6.850;2024-02-21T14:11:05;19.40;45.10
6986;DHT22;3533;51.246;6.850;2024-02-21T14:13:31;19.40;45.10
6986;DHT22;3533;51.246;6.850;2024-02-21T14:15:57;19.40;45.10
6986;DHT22;3533;51.246;6.850;2024-02-21T14:18:22;19.40;45.10
6986;DHT22;3533;51.246;6.850;2024-02-21T14:20:48;19.40;45.10
6986;DHT22;3533;51.246;6.850;2024-02-21T14:23:14;19.40;45.10
6986;DHT22;3533;51.246;6.850;2024-02-21T14:25:39;19.40;45.00
6986;DHT22;3533;51.246;6.850;2024-02-21T14:28:07;19.50;45.10
6986;DHT22;3533;51.246;6.850;2024-02-21T14:30:34;19.50;45.00
6986;DHT22;3533;51.246;6.850;2024-02-21T14:33:00;19.50;45.10
6986;DHT22;3533;51.246;6.850;2024-02-21T14:35:26;19.50;45.10
6986;DHT22;3533;51.246;6.850;2024-02-21T14:37:52;19.50;45.10
6986;DHT22;3533;51.246;6.850;2024-02-21T14:40:22;19.50;45.10
6986;DHT22;3533;51.246;6.850;2024-02-21T14:42:48;19.50;45.10
6986;DHT22;3533;51.246;6.850;2024-02-21T14:45:14;19.50;45.10
6986;DHT22;3533;51.246;6.850;2024-02-21T14:47:39;19.50;45.10
6986;DHT22;3533;51.246;6.850;2024-02-21T14:50:05;19.50;45.10
6986;DHT22;3533;51.246;6.850;2024-02-21T14:52:32;19.50;45.10
6986;DHT22;3533;51.246;6.850;2024-02-21T14:54:58;19.40;45.10
6986;DHT22;3533;51.246;6.850;2024-02-21T14:57:24;19.40;45.00
6986;DHT22;3533;51.246;6.850;2024-02-21T14:59:50;19.50;45.10
6986;DHT22;3533;51.246;6.850;2024-02-21T15:02:22;19.50;45.10
6986;DHT22;3533;51.246;6.850;2024-02-21T15:04:48;19.50;45.10
6986;DHT22;3533;51.246;6.850;2024-02-21T15:07:14;19.40;45.00
6986;DHT22;3533;51.246;6.850;2024-02-21T15:09:39;19.40;45.00
6986;DHT22;3533;51.246;6.850;2024-02-21T15:12:05;19.40;45.10
6986;DHT22;3533;51.246;6.850;2024-02-21T15:14:31;19.50;45.10
6986;DHT22;3533;51.246;6.850;2024-02-21T15:16:57;19.40;45.00
6986;DHT22;3533;51.246;6.850;2024-02-21T15:19:22;19.40;45.00
6986;DHT22;3533;51.246;6.850;2024-02-21T15:21:48;19.40;45.00
6986;DHT22;3533;51.246;6.850;2024-02-21T15:24:13;19.40;45.00
6986;DHT22;3533;51.246;6.850;2024-02-21T15:26:39;19.40;45.00
6986;DHT22;3533;51.246;6.850;2024-02-21T15:29:05;19.40;45.00
6986;DHT22;3533;51.246;6.850;2024-02-21T15:31:31;19.40;45.00
6986;DHT22;3533;51.246;6.850;2024-02-21T15:33:56;19.40;45.00
6986;DHT22;3533;51.246;6.850;2024-02-21T15:36:22;19.40;44.90
6986;DHT22;3533;51.246;6.850;2024-02-21T15:38:47;19.40;45.00
6986;DHT22;3533;51.246;6.850;2024-02-21T15:41:14;19.40;45.00
6986;DHT22;3533;51.246;6.850;2024-02-21T15:43:40;19.40;45.70
6986;DHT22;3533;51.246;6.850;2024-02-21T15:46:06;19.40;45.10
6986;DHT22;3533;51.246;6.850;2024-02-21T15:48:31;19.40;45.70
6986;DHT22;3533;51.246;6.850;2024-02-21T15:51:00;19.40;45.00
6986;DHT22;3533;51.246;6.850;2024-02-21T15:53:26;19.40;44.90
6986;DHT22;3533;51.246;6.850;2024-02-21T15:55:52;19.40;45.00
6986;DHT22;3533;51.246;6.850;2024-02-21T15:58:18;19.40;45.00
6986;DHT22;3533;51.246;6.850;2024-02-21T16:00:45;19.40;45.00
6986;DHT22;3533;51.246;6.850;2024-02-21T16:03:11;19.40;45.00